Time;durP1;ratioP1;P1;durP2;ratioP2;P2;SDS_P1;SDS_P2;PMS_P1;PMS_P2;Temp;Humidity;BMP_temperature;BMP_pressure;BME280_temperature;BME280_humidity;BME280_pressure;Samples;Min_cycle;Max_cycle;Signal;HPM_P1;HPM_P2
2023/10/31 00:02:20;;;;;;;;;;;11.30;90.10;;;;;;5110189;28;19919;-71
2023/10/31 00:04:45;;;;;;;;;;;11.30;90.20;;;;;;5109901;28;19919;-66
2023/10/31 00:07:11;;;;;;;;;;;11.20;90.20;;;;;;5108948;28;19911;-72
2023/10/31 00:09:39;;;;;;;;;;;11.20;90.20;;;;;;5110392;28;20309;-71
2023/10/31 00:12:04;;;;;;;;;;;11.20;90.20;;;;;;5110176;28;19918;-72
2023/10/31 00:14:30;;;;;;;;;;;11.30;90.20;;;;;;5109890;28;20002;-72
2023/10/31 00:16:56;;;;;;;;;;;11.20;90.10;;;;;;5109972;28;19915;-72
2023/10/31 00:19:21;;;;;;;;;;;11.20;90.10;;;;;;5109801;28;19930;-71
2023/10/31 00:21:47;;;;;;;;;;;11.20;90.20;;;;;;5109995;28;20131;-72
2023/10/31 00:24:12;;;;;;;;;;;11.10;90.10;;;;;;5109828;28;19982;-72
2023/10/31 00:26:38;;;;;;;;;;;11.10;90.20;;;;;;5109817;28;19998;-72
2023/10/31 00:29:04;;;;;;;;;;;11.10;90.20;;;;;;5110150;28;20321;-72
2023/10/31 00:31:29;;;;;;;;;;;11.10;90.20;;;;;;5109827;28;19951;-72
2023/10/31 00:33:55;;;;;;;;;;;11.10;90.20;;;;;;5109726;28;19907;-71
2023/10/31 00:36:21;;;;;;;;;;;11.10;90.20;;;;;;5109979;28;20484;-72
2023/10/31 00:38:46;;;;;;;;;;;11.10;90.10;;;;;;5109551;28;19924;-72
2023/10/31 00:41:12;;;;;;;;;;;11.10;90.10;;;;;;5109551;28;20273;-72
2023/10/31 00:43:37;;;;;;;;;;;11.00;90.20;;;;;;5109413;28;20260;-72
2023/10/31 00:46:03;;;;;;;;;;;11.00;90.20;;;;;;5109779;28;19912;-72
2023/10/31 00:48:29;;;;;;;;;;;11.00;90.20;;;;;;5109497;28;19911;-72
2023/10/31 00:50:54;;;;;;;;;;;10.90;90.10;;;;;;5109360;28;19908;-72
2023/10/31 00:53:20;;;;;;;;;;;10.80;90.10;;;;;;5091257;28;20019;-72
2023/10/31 00:55:45;;;;;;;;;;;10.90;90.10;;;;;;5109226;28;19916;-71
2023/10/31 00:58:11;;;;;;;;;;;10.80;90.10;;;;;;5090821;28;19937;-72
2023/10/31 01:00:37;;;;;;;;;;;10.80;90.20;;;;;;5109204;28;19935;-72
2023/10/31 01:03:03;;;;;;;;;;;10.80;90.20;;;;;;5109114;28;20382;-72
2023/10/31 01:05:28;;;;;;;;;;;10.80;90.20;;;;;;5108964;28;20080;-72
2023/10/31 01:07:54;;;;;;;;;;;10.80;90.20;;;;;;5108975;28;19912;-72
2023/10/31 01:10:20;;;;;;;;;;;10.80;90.20;;;;;;5109083;28;19918;-72
2023/10/31 01:12:46;;;;;;;;;;;10.80;90.20;;;;;;5108969;28;19915;-72
2023/10/31 01:15:11;;;;;;;;;;;10.90;90.20;;;;;;5090583;28;20410;-72
2023/10/31 01:17:37;;;;;;;;;;;10.90;90.20;;;;;;5108680;28;19999;-70
2023/10/31 01:20:02;;;;;;;;;;;10.90;90.20;;;;;;5108719;28;20305;-70
2023/10/31 01:22:28;;;;;;;;;;;10.90;90.10;;;;;;5090531;28;20146;-70
2023/10/31 01:24:54;;;;;;;;;;;10.90;90.10;;;;;;5108667;28;20347;-70
2023/10/31 01:27:19;;;;;;;;;;;10.90;90.10;;;;;;5108749;28;19916;-70
2023/10/31 01:29:45;;;;;;;;;;;10.80;90.10;;;;;;5108675;28;19958;-70
2023/10/31 01:32:10;;;;;;;;;;;10.80;90.10;;;;;;5108627;28;20392;-70
2023/10/31 01:34:36;;;;;;;;;;;10.80;90.10;;;;;;5108628;28;20018;-70
2023/10/31 01:37:01;;;;;;;;;;;10.80;90.10;;;;;;5090307;28;20006;-70
2023/10/31 01:39:27;;;;;;;;;;;10.80;90.10;;;;;;5108503;28;19916;-70
2023/10/31 01:41:54;;;;;;;;;;;10.80;90.10;;;;;;5090270;28;19920;-70
2023/10/31 01:44:20;;;;;;;;;;;10.70;90.10;;;;;;5108417;28;19958;-70
2023/10/31 01:46:46;;;;;;;;;;;10.70;90.10;;;;;;5108374;28;20332;-70
2023/10/31 01:49:11;;;;;;;;;;;10.70;90.30;;;;;;5090130;28;20257;-70
2023/10/31 01:51:37;;;;;;;;;;;10.70;90.10;;;;;;5090249;28;19911;-70
2023/10/31 01:54:04;;;;;;;;;;;10.70;90.10;;;;;;5108693;28;19926;-70
2023/10/31 01:56:29;;;;;;;;;;;10.70;90.10;;;;;;5108151;28;19944;-70
2023/10/31 01:58:55;;;;;;;;;;;10.60;90.10;;;;;;5108637;28;19912;-70
2023/10/31 02:01:21;;;;;;;;;;;10.60;90.10;;;;;;5108159;28;20034;-70
2023/10/31 02:03:47;;;;;;;;;;;10.60;90.10;;;;;;5090210;28;20284;-70
2023/10/31 02:06:12;;;;;;;;;;;10.60;90.10;;;;;;5108018;28;19928;-70
2023/10/31 02:08:38;;;;;;;;;;;10.60;90.10;;;;;;5089972;28;20391;-70
2023/10/31 02:11:05;;;;;;;;;;;10.60;90.20;;;;;;5108248;28;20295;-70
2023/10/31 02:13:31;;;;;;;;;;;10.60;90.10;;;;;;5108178;28;20109;-70
2023/10/31 02:15:56;;;;;;;;;;;10.60;90.20;;;;;;5108172;28;19908;-70
2023/10/31 02:18:22;;;;;;;;;;;10.60;90.20;;;;;;5107936;28;19918;-70
2023/10/31 02:20:48;;;;;;;;;;;10.60;90.20;;;;;;5108026;28;19912;-70
2023/10/31 02:23:15;;;;;;;;;;;10.60;90.20;;;;;;5108038;28;20367;-71
2023/10/31 02:25:40;;;;;;;;;;;10.60;90.10;;;;;;5108097;28;20261;-70
2023/10/31 02:28:06;;;;;;;;;;;10.60;90.20;;;;;;5089892;28;19915;-70
2023/10/31 02:30:32;;;;;;;;;;;10.60;90.20;;;;;;5109486;28;20271;-70
2023/10/31 02:32:57;;;;;;;;;;;10.70;90.20;;;;;;5112087;28;19915;-70
2023/10/31 02:35:23;;;;;;;;;;;10.70;90.20;;;;;;5111994;28;19912;-70
2023/10/31 02:37:49;;;;;;;;;;;10.70;90.20;;;;;;5111842;28;19916;-70
2023/10/31 02:40:14;;;;;;;;;;;10.70;90.20;;;;;;5111951;28;19936;-70
2023/10/31 02:42:40;;;;;;;;;;;10.70;90.20;;;;;;5111712;28;19965;-71
2023/10/31 02:45:06;;;;;;;;;;;10.70;90.20;;;;;;5111804;28;20007;-70
2023/10/31 02:47:32;;;;;;;;;;;10.70;90.20;;;;;;5111757;28;20064;-70
2023/10/31 02:49:57;;;;;;;;;;;10.70;90.20;;;;;;5111805;28;20006;-70
2023/10/31 02:52:23;;;;;;;;;;;10.70;90.20;;;;;;5111857;28;19998;-70
2023/10/31 02:54:48;;;;;;;;;;;10.80;90.20;;;;;;5111612;28;19912;-70
2023/10/31 02:57:15;;;;;;;;;;;10.80;90.20;;;;;;5111662;28;19994;-70
2023/10/31 02:59:41;;;;;;;;;;;10.80;90.20;;;;;;5111386;28;19908;-70
2023/10/31 03:02:06;;;;;;;;;;;10.80;90.20;;;;;;5076250;28;19922;-70
2023/10/31 03:04:32;;;;;;;;;;;10.80;90.20;;;;;;5111340;28;20290;-70
2023/10/31 03:06:57;;;;;;;;;;;10.90;90.20;;;;;;5111474;28;19973;-70
2023/10/31 03:09:23;;;;;;;;;;;10.80;90.20;;;;;;5111292;28;19916;-70
2023/10/31 03:11:48;;;;;;;;;;;10.80;90.20;;;;;;5111307;28;19912;-70
2023/10/31 03:14:14;;;;;;;;;;;10.80;90.20;;;;;;5111300;28;19935;-69
2023/10/31 03:16:40;;;;;;;;;;;10.80;90.20;;;;;;5111206;28;19926;-70
2023/10/31 03:19:05;;;;;;;;;;;10.90;90.30;;;;;;5111083;28;20364;-70
2023/10/31 03:21:31;;;;;;;;;;;10.90;90.30;;;;;;5111154;28;19920;-70
2023/10/31 03:23:57;;;;;;;;;;;10.90;90.30;;;;;;5111040;28;20027;-70
2023/10/31 03:26:22;;;;;;;;;;;10.90;90.30;;;;;;5110921;28;19908;-70
2023/10/31 03:28:48;;;;;;;;;;;10.90;90.30;;;;;;5110880;28;19954;-70
2023/10/31 03:31:14;;;;;;;;;;;11.00;90.30;;;;;;5111004;28;19919;-70
2023/10/31 03:33:39;;;;;;;;;;;11.00;90.30;;;;;;5110844;28;19912;-70
2023/10/31 03:36:05;;;;;;;;;;;11.00;90.30;;;;;;5111015;28;19969;-70
2023/10/31 03:38:31;;;;;;;;;;;11.10;90.30;;;;;;5110796;28;20366;-70
2023/10/31 03:40:57;;;;;;;;;;;11.10;90.30;;;;;;5110472;28;20355;-70
2023/10/31 03:43:22;;;;;;;;;;;11.10;90.30;;;;;;5110643;28;20303;-70
2023/10/31 03:45:48;;;;;;;;;;;11.10;90.30;;;;;;5092436;28;19916;-70
2023/10/31 03:48:14;;;;;;;;;;;11.10;90.30;;;;;;5110591;28;20299;-70
2023/10/31 03:50:39;;;;;;;;;;;11.10;90.30;;;;;;5092568;28;19915;-70
2023/10/31 03:53:05;;;;;;;;;;;11.10;90.30;;;;;;5110569;28;19932;-70
2023/10/31 03:55:30;;;;;;;;;;;11.10;90.30;;;;;;5092159;28;19912;-70
2023/10/31 03:57:56;;;;;;;;;;;11.10;90.30;;;;;;5092089;28;20364;-70
2023/10/31 04:00:22;;;;;;;;;;;11.20;90.40;;;;;;5110415;28;19916;-70
2023/10/31 04:02:47;;;;;;;;;;;11.20;90.30;;;;;;5110290;28;19919;-70
2023/10/31 04:05:13;;;;;;;;;;;11.20;90.30;;;;;;5109994;28;19924;-70
2023/10/31 04:07:38;;;;;;;;;;;11.20;90.30;;;;;;5110210;28;19953;-70
2023/10/31 04:10:04;;;;;;;;;;;11.20;90.30;;;;;;5110220;28;20040;-70
2023/10/31 04:12:30;;;;;;;;;;;11.20;90.30;;;;;;5110295;28;20378;-70
2023/10/31 04:14:55;;;;;;;;;;;11.20;90.30;;;;;;5110154;28;20010;-70
2023/10/31 04:17:21;;;;;;;;;;;11.20;90.30;;;;;;5110308;28;19920;-70
2023/10/31 04:19:47;;;;;;;;;;;11.30;90.40;;;;;;5109783;28;20009;-69
2023/10/31 04:22:13;;;;;;;;;;;11.30;90.40;;;;;;5109867;28;20375;-70
2023/10/31 04:24:38;;;;;;;;;;;11.30;90.40;;;;;;5109968;28;19912;-70
2023/10/31 04:27:04;;;;;;;;;;;11.30;90.60;;;;;;5109825;28;19920;-70
2023/10/31 04:29:29;;;;;;;;;;;11.20;90.40;;;;;;5091251;28;20002;-70
2023/10/31 04:31:55;;;;;;;;;;;11.20;90.40;;;;;;5110038;28;19915;-70
2023/10/31 04:34:20;;;;;;;;;;;11.30;90.40;;;;;;5109709;28;19961;-70
2023/10/31 04:36:46;;;;;;;;;;;11.20;90.40;;;;;;5109794;28;19970;-70
2023/10/31 04:39:11;;;;;;;;;;;11.30;90.40;;;;;;5091487;28;19916;-70
2023/10/31 04:41:37;;;;;;;;;;;11.30;90.40;;;;;;5109516;28;19912;-71
2023/10/31 04:44:03;;;;;;;;;;;11.30;90.40;;;;;;5109504;28;19915;-71
2023/10/31 04:46:28;;;;;;;;;;;11.30;90.40;;;;;;5091451;28;19911;-71
2023/10/31 04:48:54;;;;;;;;;;;11.30;90.40;;;;;;5091114;28;19916;-71
2023/10/31 04:51:19;;;;;;;;;;;11.30;90.40;;;;;;5109437;28;19935;-70
2023/10/31 04:53:45;;;;;;;;;;;11.30;90.40;;;;;;5108662;28;19912;-71
2023/10/31 04:56:14;;;;;;;;;;;11.30;90.40;;;;;;5109377;28;19908;-71
2023/10/31 04:58:40;;;;;;;;;;;11.30;90.40;;;;;;5109120;28;19957;-71
2023/10/31 05:01:09;;;;;;;;;;;11.30;90.40;;;;;;5109237;28;19918;-70
2023/10/31 05:03:35;;;;;;;;;;;11.30;90.40;;;;;;5108956;28;19911;-71
2023/10/31 05:06:00;;;;;;;;;;;11.30;90.40;;;;;;5108829;28;20080;-70
2023/10/31 05:08:26;;;;;;;;;;;11.30;90.40;;;;;;5108854;28;20283;-70
2023/10/31 05:10:52;;;;;;;;;;;11.30;90.40;;;;;;5109022;28;19911;-71
2023/10/31 05:13:17;;;;;;;;;;;11.30;90.40;;;;;;5090637;28;20386;-71
2023/10/31 05:15:43;;;;;;;;;;;11.30;90.40;;;;;;5108982;28;20726;-70
2023/10/31 05:18:08;;;;;;;;;;;11.30;90.40;;;;;;5108728;28;19918;-71
2023/10/31 05:20:34;;;;;;;;;;;11.30;90.40;;;;;;5108932;28;19912;-71
2023/10/31 05:22:59;;;;;;;;;;;11.30;90.40;;;;;;5108684;28;19920;-71
2023/10/31 05:25:25;;;;;;;;;;;11.30;90.40;;;;;;5108844;28;19919;-71
2023/10/31 05:27:52;;;;;;;;;;;11.30;90.40;;;;;;5108884;28;19919;-70
2023/10/31 05:30:17;;;;;;;;;;;11.30;90.40;;;;;;5108680;28;19977;-71
2023/10/31 05:32:44;;;;;;;;;;;11.30;90.40;;;;;;5108726;28;20396;-71
2023/10/31 05:35:10;;;;;;;;;;;11.40;90.40;;;;;;5108596;28;19907;-70
2023/10/31 05:37:35;;;;;;;;;;;11.30;90.40;;;;;;5090279;28;19915;-70
2023/10/31 05:40:01;;;;;;;;;;;11.30;90.40;;;;;;5108689;28;19930;-71
2023/10/31 05:42:27;;;;;;;;;;;11.30;90.40;;;;;;5090368;28;19926;-72
2023/10/31 05:44:54;;;;;;;;;;;11.30;90.40;;;;;;5108466;28;19957;-71
2023/10/31 05:47:19;;;;;;;;;;;11.30;90.40;;;;;;5090235;28;19911;-72
2023/10/31 05:49:45;;;;;;;;;;;11.30;90.40;;;;;;5108371;28;20352;-72
2023/10/31 05:52:11;;;;;;;;;;;11.30;90.40;;;;;;5108476;28;20390;-72
2023/10/31 05:54:37;;;;;;;;;;;11.30;90.40;;;;;;5108380;28;19916;-72
2023/10/31 05:57:02;;;;;;;;;;;11.40;90.40;;;;;;5108424;28;19912;-72
2023/10/31 05:59:28;;;;;;;;;;;11.30;90.40;;;;;;5108141;28;20029;-71
2023/10/31 06:01:53;;;;;;;;;;;11.30;90.40;;;;;;5108325;28;19916;-69
2023/10/31 06:04:19;;;;;;;;;;;11.30;90.40;;;;;;5109371;28;19923;-70
2023/10/31 06:06:44;;;;;;;;;;;11.30;90.40;;;;;;5094317;28;19915;-69
2023/10/31 06:09:10;;;;;;;;;;;11.30;90.40;;;;;;5094185;28;20249;-69
2023/10/31 06:11:36;;;;;;;;;;;11.20;90.40;;;;;;5112363;28;19916;-70
2023/10/31 06:14:01;;;;;;;;;;;11.20;90.40;;;;;;5112375;28;20033;-69
2023/10/31 06:16:27;;;;;;;;;;;11.20;90.40;;;;;;5112191;28;19916;-69
2023/10/31 06:18:52;;;;;;;;;;;11.20;90.40;;;;;;5093927;28;20175;-69
2023/10/31 06:21:18;;;;;;;;;;;11.20;90.40;;;;;;5112241;28;19972;-69
2023/10/31 06:23:46;;;;;;;;;;;11.20;90.40;;;;;;5112298;28;19912;-70
2023/10/31 06:26:11;;;;;;;;;;;11.30;90.40;;;;;;5112131;28;19912;-70
2023/10/31 06:28:37;;;;;;;;;;;11.30;90.40;;;;;;5112194;28;20283;-69
2023/10/31 06:31:03;;;;;;;;;;;11.20;90.40;;;;;;5112029;28;19953;-69
2023/10/31 06:33:29;;;;;;;;;;;11.20;90.40;;;;;;5112309;28;19916;-69
2023/10/31 06:35:54;;;;;;;;;;;11.20;90.40;;;;;;5111859;28;19940;-70
2023/10/31 06:38:20;;;;;;;;;;;11.20;90.40;;;;;;5093506;28;19911;-69
2023/10/31 06:40:45;;;;;;;;;;;11.10;90.40;;;;;;5111588;28;19924;-72
2023/10/31 06:43:11;;;;;;;;;;;11.20;90.40;;;;;;5111639;28;20418;-70
2023/10/31 06:45:36;;;;;;;;;;;11.20;90.40;;;;;;5111984;28;19951;-70
2023/10/31 06:48:03;;;;;;;;;;;11.10;90.40;;;;;;5111605;28;19912;-70
2023/10/31 06:50:28;;;;;;;;;;;11.10;90.40;;;;;;5093366;28;19919;-70
2023/10/31 06:52:54;;;;;;;;;;;11.10;90.40;;;;;;5111646;28;19912;-70
2023/10/31 06:55:20;;;;;;;;;;;11.10;90.40;;;;;;5093388;28;19916;-70
2023/10/31 06:57:45;;;;;;;;;;;11.10;90.40;;;;;;5111555;28;20375;-69
2023/10/31 07:00:11;;;;;;;;;;;11.10;90.40;;;;;;5111454;28;19919;-69
2023/10/31 07:02:37;;;;;;;;;;;11.10;90.40;;;;;;5111404;28;19929;-70
2023/10/31 07:05:03;;;;;;;;;;;11.10;90.40;;;;;;5111133;28;20017;-70
2023/10/31 07:07:29;;;;;;;;;;;11.10;90.40;;;;;;5092598;28;20372;-70
2023/10/31 07:09:55;;;;;;;;;;;11.00;90.40;;;;;;5111032;28;20367;-69
2023/10/31 07:12:20;;;;;;;;;;;11.00;90.40;;;;;;5075971;28;19946;-71
2023/10/31 07:14:46;;;;;;;;;;;11.00;90.40;;;;;;5111135;28;19911;-71
2023/10/31 07:17:11;;;;;;;;;;;11.00;90.40;;;;;;5110355;28;19915;-72
2023/10/31 07:19:37;;;;;;;;;;;11.00;90.40;;;;;;5111062;28;19923;-72
2023/10/31 07:22:03;;;;;;;;;;;11.00;90.40;;;;;;5092520;28;19975;-69
2023/10/31 07:24:28;;;;;;;;;;;11.00;90.40;;;;;;5110826;28;20372;-69
2023/10/31 07:26:54;;;;;;;;;;;11.00;90.40;;;;;;5111033;28;20334;-72
2023/10/31 07:29:20;;;;;;;;;;;11.00;90.40;;;;;;5092336;28;19912;-71
2023/10/31 07:31:45;;;;;;;;;;;11.00;90.40;;;;;;5075446;28;19919;-73
2023/10/31 07:34:12;;;;;;;;;;;11.00;90.40;;;;;;5110709;28;20383;-71
2023/10/31 07:36:39;;;;;;;;;;;11.00;90.40;;;;;;5110363;28;19916;-76
2023/10/31 07:39:04;;;;;;;;;;;11.00;90.40;;;;;;5110425;28;20299;-76
2023/10/31 07:41:33;;;;;;;;;;;11.00;90.40;;;;;;5091765;28;19919;-76
2023/10/31 07:43:59;;;;;;;;;;;11.00;90.40;;;;;;5110564;28;20048;-76
2023/10/31 07:46:24;;;;;;;;;;;11.00;90.40;;;;;;5110450;28;19916;-75
2023/10/31 07:48:50;;;;;;;;;;;11.10;90.40;;;;;;5110318;28;19919;-75
2023/10/31 07:51:15;;;;;;;;;;;11.00;90.40;;;;;;5092035;28;19912;-75
2023/10/31 07:53:41;;;;;;;;;;;11.00;90.40;;;;;;5110203;28;19908;-75
2023/10/31 07:56:17;;;;;;;;;;;11.10;90.40;;;;;;5109980;28;19911;-73
2023/10/31 07:58:43;;;;;;;;;;;11.10;90.40;;;;;;5074817;28;19919;-75
2023/10/31 08:01:10;;;;;;;;;;;11.10;90.40;;;;;;5109808;28;19911;-75
2023/10/31 08:03:37;;;;;;;;;;;11.10;90.40;;;;;;5109862;28;19920;-75
2023/10/31 08:06:04;;;;;;;;;;;11.10;90.40;;;;;;5109892;28;20041;-75
2023/10/31 08:08:29;;;;;;;;;;;11.10;90.40;;;;;;5109878;28;19908;-75
2023/10/31 08:10:57;;;;;;;;;;;11.10;90.40;;;;;;5110026;28;19919;-75
2023/10/31 08:13:22;;;;;;;;;;;11.20;90.40;;;;;;5109517;28;19912;-75
2023/10/31 08:15:48;;;;;;;;;;;11.20;90.40;;;;;;5109674;28;19912;-76
2023/10/31 08:18:13;;;;;;;;;;;11.20;90.60;;;;;;5109609;28;19912;-75
2023/10/31 08:20:39;;;;;;;;;;;11.20;90.40;;;;;;5109314;28;19959;-75
2023/10/31 08:23:05;;;;;;;;;;;11.20;90.40;;;;;;5091199;28;19941;-75
2023/10/31 08:25:30;;;;;;;;;;;11.30;90.40;;;;;;5109470;28;19912;-75
2023/10/31 08:27:56;;;;;;;;;;;11.30;90.40;;;;;;5108326;28;19912;-75
2023/10/31 08:30:22;;;;;;;;;;;11.30;90.40;;;;;;5109366;28;19919;-75
2023/10/31 08:32:47;;;;;;;;;;;11.30;90.30;;;;;;5109383;28;20007;-75
2023/10/31 08:35:13;;;;;;;;;;;11.30;90.30;;;;;;5109118;28;19918;-75
2023/10/31 08:37:39;;;;;;;;;;;11.30;90.30;;;;;;5109230;28;19968;-75
2023/10/31 08:40:05;;;;;;;;;;;11.30;90.30;;;;;;5109153;28;19912;-75
2023/10/31 08:42:30;;;;;;;;;;;11.30;90.40;;;;;;5108975;28;19941;-75
2023/10/31 08:44:56;;;;;;;;;;;11.30;90.40;;;;;;5090823;28;20412;-75
2023/10/31 08:47:22;;;;;;;;;;;11.30;90.50;;;;;;5108784;28;20105;-75
2023/10/31 08:49:48;;;;;;;;;;;11.40;90.50;;;;;;5108844;28;19920;-76
2023/10/31 08:52:14;;;;;;;;;;;11.50;90.60;;;;;;5090693;28;20410;-75
2023/10/31 08:54:39;;;;;;;;;;;11.60;90.50;;;;;;5108919;28;19923;-75
2023/10/31 08:57:05;;;;;;;;;;;11.70;90.50;;;;;;5109004;28;19919;-75
2023/10/31 08:59:30;;;;;;;;;;;11.80;90.50;;;;;;5108944;28;20006;-75
2023/10/31 09:01:56;;;;;;;;;;;11.90;90.50;;;;;;5108744;28;19960;-75
2023/10/31 09:04:22;;;;;;;;;;;11.90;90.40;;;;;;5108685;28;19915;-73
2023/10/31 09:06:47;;;;;;;;;;;11.90;90.40;;;;;;5090719;28;19969;-75
2023/10/31 09:09:13;;;;;;;;;;;12.00;90.40;;;;;;5108528;28;20014;-75
2023/10/31 09:11:39;;;;;;;;;;;12.00;90.40;;;;;;5108487;28;19918;-75
2023/10/31 09:14:04;;;;;;;;;;;12.00;90.40;;;;;;5090398;28;20411;-75
2023/10/31 09:16:30;;;;;;;;;;;12.00;90.40;;;;;;5108032;28;19914;-75
2023/10/31 09:18:55;;;;;;;;;;;12.10;90.50;;;;;;5108279;28;20344;-75
2023/10/31 09:21:21;;;;;;;;;;;12.10;90.50;;;;;;5108283;28;20283;-75
2023/10/31 09:23:47;;;;;;;;;;;12.20;90.40;;;;;;5108151;28;19912;-75
2023/10/31 09:26:13;;;;;;;;;;;12.30;90.50;;;;;;5089336;28;20045;-75
2023/10/31 09:28:40;;;;;;;;;;;12.30;90.40;;;;;;5089708;28;19920;-75
2023/10/31 09:31:05;;;;;;;;;;;12.30;90.40;;;;;;5107783;28;19965;-75
2023/10/31 09:33:31;;;;;;;;;;;12.40;90.60;;;;;;5108104;28;20317;-75
2023/10/31 09:35:57;;;;;;;;;;;12.60;90.80;;;;;;5108063;28;19938;-76
2023/10/31 09:38:23;;;;;;;;;;;13.00;91.10;;;;;;5107667;28;20006;-75
2023/10/31 09:40:49;;;;;;;;;;;13.70;91.50;;;;;;5108186;28;19908;-76
2023/10/31 09:43:15;;;;;;;;;;;14.50;91.40;;;;;;5107927;28;20014;-76
2023/10/31 09:45:41;;;;;;;;;;;14.80;90.90;;;;;;5107885;28;20007;-73
2023/10/31 09:48:07;;;;;;;;;;;14.90;91.00;;;;;;5089367;28;20341;-75
2023/10/31 09:50:33;;;;;;;;;;;15.10;90.90;;;;;;5090048;28;19999;-77
2023/10/31 09:52:59;;;;;;;;;;;16.00;91.70;;;;;;5106339;28;19912;-77
2023/10/31 09:55:25;;;;;;;;;;;16.80;91.70;;;;;;5095751;28;20412;-76
2023/10/31 09:57:51;;;;;;;;;;;17.50;91.60;;;;;;5070644;28;20307;-76
2023/10/31 10:00:16;;;;;;;;;;;17.90;91.40;;;;;;5088067;28;19948;-75
2023/10/31 10:02:42;;;;;;;;;;;18.30;91.10;;;;;;5102494;28;19920;-80
2023/10/31 10:05:09;;;;;;;;;;;18.10;90.70;;;;;;5085409;28;19943;-76
2023/10/31 10:07:35;;;;;;;;;;;17.80;90.40;;;;;;5091201;28;19935;-75
2023/10/31 10:10:01;;;;;;;;;;;17.30;90.30;;;;;;5091339;28;19931;-77
2023/10/31 10:12:26;;;;;;;;;;;16.90;90.30;;;;;;5111810;28;20033;-78
2023/10/31 10:14:52;;;;;;;;;;;16.50;90.20;;;;;;5105218;28;20347;-78
2023/10/31 10:17:21;;;;;;;;;;;16.10;90.40;;;;;;5109426;28;20363;-78
2023/10/31 10:19:47;;;;;;;;;;;15.90;90.60;;;;;;5091393;28;19915;-79
2023/10/31 10:22:14;;;;;;;;;;;15.80;90.70;;;;;;5091199;28;19919;-80
2023/10/31 10:24:40;;;;;;;;;;;15.90;91.00;;;;;;5091934;28;19915;-80
2023/10/31 10:27:09;;;;;;;;;;;16.00;91.10;;;;;;5110107;28;19916;-81
2023/10/31 10:29:35;;;;;;;;;;;16.20;91.00;;;;;;5110012;28;19912;-80
2023/10/31 10:32:00;;;;;;;;;;;16.20;90.70;;;;;;5091980;28;19969;-81
2023/10/31 10:34:26;;;;;;;;;;;15.90;90.50;;;;;;5091969;28;19908;-81
2023/10/31 10:36:53;;;;;;;;;;;15.70;90.40;;;;;;5108676;28;19924;-80
2023/10/31 10:39:21;;;;;;;;;;;15.40;90.40;;;;;;5099638;28;20030;-77
2023/10/31 10:41:49;;;;;;;;;;;15.10;90.40;;;;;;5103570;28;20259;-75
2023/10/31 10:44:15;;;;;;;;;;;15.00;90.60;;;;;;5088745;28;19912;-77
2023/10/31 10:46:41;;;;;;;;;;;14.80;90.60;;;;;;5088871;28;19920;-76
2023/10/31 10:49:07;;;;;;;;;;;14.70;90.50;;;;;;5091111;28;19916;-77
2023/10/31 10:51:51;;;;;;;;;;;14.50;90.50;;;;;;5110396;28;19927;-77
2023/10/31 10:54:26;;;;;;;;;;;14.40;90.80;;;;;;5093532;28;19962;-76
2023/10/31 10:56:59;;;;;;;;;;;14.30;90.60;;;;;;5093510;28;19955;-77
2023/10/31 10:59:50;;;;;;;;;;;14.30;90.60;;;;;;5093283;28;20244;-77
2023/10/31 11:02:17;;;;;;;;;;;14.30;90.70;;;;;;5092796;28;19919;-77
2023/10/31 11:04:43;;;;;;;;;;;14.30;90.80;;;;;;5092739;28;19915;-77
2023/10/31 11:07:09;;;;;;;;;;;14.40;90.80;;;;;;5113390;28;20287;-77
2023/10/31 11:09:35;;;;;;;;;;;14.50;90.70;;;;;;5096092;28;19908;-78
2023/10/31 11:12:01;;;;;;;;;;;14.70;90.80;;;;;;5095867;28;19923;-77
2023/10/31 11:14:28;;;;;;;;;;;14.80;90.80;;;;;;5114006;28;19951;-79
2023/10/31 11:16:57;;;;;;;;;;;14.80;90.60;;;;;;5117344;28;19908;-75
2023/10/31 11:19:24;;;;;;;;;;;15.00;90.80;;;;;;5113385;28;19908;-76
2023/10/31 11:21:57;;;;;;;;;;;15.20;90.90;;;;;;5094253;28;19920;-78
2023/10/31 11:24:23;;;;;;;;;;;15.40;90.80;;;;;;5113756;28;19942;-78
2023/10/31 11:26:53;;;;;;;;;;;15.40;90.70;;;;;;5113928;28;19908;-78
2023/10/31 11:29:19;;;;;;;;;;;15.50;90.70;;;;;;5079506;28;19911;-78
2023/10/31 11:31:46;;;;;;;;;;;15.40;90.60;;;;;;5116005;28;20003;-77
2023/10/31 11:34:12;;;;;;;;;;;15.40;90.50;;;;;;5113221;28;20481;-78
2023/10/31 11:36:38;;;;;;;;;;;15.40;90.60;;;;;;5094685;28;19972;-77
2023/10/31 11:39:11;;;;;;;;;;;15.60;91.10;;;;;;5113346;28;19957;-82
2023/10/31 11:41:40;;;;;;;;;;;15.90;91.00;;;;;;5094700;28;20295;-79
2023/10/31 11:44:05;;;;;;;;;;;16.00;90.80;;;;;;5092002;28;19908;-78
2023/10/31 11:46:31;;;;;;;;;;;15.80;90.40;;;;;;5110650;28;19961;-79
2023/10/31 11:48:57;;;;;;;;;;;15.60;90.40;;;;;;5093629;28;19915;-80
2023/10/31 11:51:22;;;;;;;;;;;15.40;90.40;;;;;;5113001;28;19987;-82
2023/10/31 11:53:52;;;;;;;;;;;15.30;90.50;;;;;;5094369;28;19911;-77
2023/10/31 11:56:18;;;;;;;;;;;15.30;90.80;;;;;;5112153;28;19956;-74
2023/10/31 11:58:43;;;;;;;;;;;15.70;91.30;;;;;;5112567;28;19911;-79
2023/10/31 12:01:09;;;;;;;;;;;16.50;92.00;;;;;;5112081;28;19914;-77
2023/10/31 12:03:39;;;;;;;;;;;17.50;92.20;;;;;;5093439;28;19916;-78
2023/10/31 12:06:05;;;;;;;;;;;18.30;92.10;;;;;;5104769;28;19963;-76
2023/10/31 12:08:38;;;;;;;;;;;18.70;91.70;;;;;;5091623;28;19957;-76
2023/10/31 12:11:08;;;;;;;;;;;18.70;91.40;;;;;;5091193;28;20358;-77
2023/10/31 12:13:35;;;;;;;;;;;18.80;91.70;;;;;;5091271;28;20364;-76
2023/10/31 12:16:01;;;;;;;;;;;19.00;91.80;;;;;;5094991;28;20002;-78
2023/10/31 12:18:27;;;;;;;;;;;19.10;91.60;;;;;;5091347;28;20429;-81
2023/10/31 12:20:53;;;;;;;;;;;18.90;91.50;;;;;;5109480;28;19957;-78
2023/10/31 12:23:18;;;;;;;;;;;18.70;91.30;;;;;;5093915;28;19916;-80
2023/10/31 12:25:47;;;;;;;;;;;18.30;91.10;;;;;;5093633;28;19926;-79
2023/10/31 12:28:31;;;;;;;;;;;18.00;91.10;;;;;;5093085;28;20331;-82
2023/10/31 12:30:58;;;;;;;;;;;17.90;91.50;;;;;;5093608;28;20006;-81
2023/10/31 12:33:27;;;;;;;;;;;17.90;91.50;;;;;;5093637;28;19912;-78
2023/10/31 12:35:56;;;;;;;;;;;18.00;91.90;;;;;;5111543;28;19963;-80
2023/10/31 12:38:22;;;;;;;;;;;18.10;91.90;;;;;;5092057;28;19912;-79
2023/10/31 12:40:48;;;;;;;;;;;18.30;91.90;;;;;;5056339;28;19922;-79
2023/10/31 12:43:15;;;;;;;;;;;18.40;91.90;;;;;;5091100;28;19924;-80
2023/10/31 12:45:41;;;;;;;;;;;18.60;92.10;;;;;;5096693;28;19908;-76
2023/10/31 12:48:08;;;;;;;;;;;19.00;92.20;;;;;;5110770;28;20496;-79
2023/10/31 12:50:37;;;;;;;;;;;19.30;92.10;;;;;;5110937;28;20315;-76
2023/10/31 12:53:03;;;;;;;;;;;19.40;91.90;;;;;;5111142;28;19997;-77
2023/10/31 12:55:29;;;;;;;;;;;19.50;91.90;;;;;;5110883;28;20037;-78
2023/10/31 12:57:55;;;;;;;;;;;19.50;91.90;;;;;;5092544;28;20297;-79
2023/10/31 13:00:24;;;;;;;;;;;19.50;91.90;;;;;;5111620;28;19908;-80
2023/10/31 13:02:58;;;;;;;;;;;19.30;91.80;;;;;;5110746;28;20243;-75
2023/10/31 13:05:26;;;;;;;;;;;19.00;91.90;;;;;;5111197;28;20446;-79
2023/10/31 13:07:52;;;;;;;;;;;18.70;91.70;;;;;;5111461;28;19907;-63
2023/10/31 13:10:18;;;;;;;;;;;18.30;91.70;;;;;;5111486;28;19923;-77
2023/10/31 13:12:45;;;;;;;;;;;18.30;92.00;;;;;;5111275;28;19931;-76
2023/10/31 13:15:11;;;;;;;;;;;18.30;91.90;;;;;;5111550;28;19914;-76
2023/10/31 13:17:37;;;;;;;;;;;18.20;91.70;;;;;;5111024;28;20006;-76
2023/10/31 13:20:06;;;;;;;;;;;18.00;91.70;;;;;;5110702;28;19912;-76
2023/10/31 13:22:31;;;;;;;;;;;18.00;92.00;;;;;;5110583;28;19991;-76
2023/10/31 13:24:57;;;;;;;;;;;18.10;92.40;;;;;;5109792;28;20390;-80
2023/10/31 13:27:23;;;;;;;;;;;18.20;92.50;;;;;;5109648;28;20352;-78
2023/10/31 13:29:49;;;;;;;;;;;18.40;92.40;;;;;;5094782;28;19951;-77
2023/10/31 13:32:15;;;;;;;;;;;18.40;92.10;;;;;;5088448;28;20022;-71
2023/10/31 13:34:41;;;;;;;;;;;18.30;92.30;;;;;;5089045;28;19908;-77
2023/10/31 13:37:08;;;;;;;;;;;18.40;92.60;;;;;;5071335;28;19965;-80
2023/10/31 13:39:33;;;;;;;;;;;18.50;92.60;;;;;;5096389;28;19916;-78
2023/10/31 13:41:59;;;;;;;;;;;18.60;92.40;;;;;;5111063;28;19957;-76
2023/10/31 13:44:25;;;;;;;;;;;18.60;92.30;;;;;;5110036;28;20378;-75
2023/10/31 13:46:50;;;;;;;;;;;18.50;92.00;;;;;;5090975;28;19912;-77
2023/10/31 13:49:16;;;;;;;;;;;18.20;91.70;;;;;;5109925;28;19915;-79
2023/10/31 13:51:41;;;;;;;;;;;17.90;91.60;;;;;;5091267;28;19964;-78
2023/10/31 13:54:07;;;;;;;;;;;17.60;91.50;;;;;;5109697;28;19912;-75
2023/10/31 13:56:33;;;;;;;;;;;17.30;91.40;;;;;;5109474;28;19951;-77
2023/10/31 13:58:58;;;;;;;;;;;16.90;91.40;;;;;;5090278;28;19919;-78
2023/10/31 14:01:25;;;;;;;;;;;16.70;91.50;;;;;;5108143;28;19920;-77
2023/10/31 14:03:51;;;;;;;;;;;16.50;91.50;;;;;;5089751;28;19922;-77
2023/10/31 14:06:17;;;;;;;;;;;16.40;91.50;;;;;;5105189;28;20015;-72
2023/10/31 14:08:43;;;;;;;;;;;16.30;91.50;;;;;;5088601;28;19913;-75
2023/10/31 14:11:08;;;;;;;;;;;16.20;91.50;;;;;;5088919;28;20241;-74